Time;durP1;ratioP1;P1;durP2;ratioP2;P2;SDS_P1;SDS_P2;PMS_P1;PMS_P2;Temp;Humidity;BMP_temperature;BMP_pressure;BME280_temperature;BME280_humidity;BME280_pressure;Samples;Min_cycle;Max_cycle;Signal;HPM_P1;HPM_P2
2022/06/27 00:02:24;;;;;;;;;;;23.00;67.50;;;;;;5028048;28;82789;-42
2022/06/27 00:04:50;;;;;;;;;;;22.90;67.50;;;;;;5027809;28;83098;-42
2022/06/27 00:07:16;;;;;;;;;;;22.90;67.60;;;;;;5028612;28;82005;-42
2022/06/27 00:09:41;;;;;;;;;;;22.90;67.70;;;;;;5028508;28;82392;-42
2022/06/27 00:12:07;;;;;;;;;;;22.90;67.50;;;;;;5028223;28;82266;-42
2022/06/27 00:14:33;;;;;;;;;;;22.90;67.50;;;;;;5028305;28;82055;-41
2022/06/27 00:16:58;;;;;;;;;;;22.80;67.60;;;;;;5030710;28;84291;-41
2022/06/27 00:19:24;;;;;;;;;;;22.80;67.60;;;;;;5028445;28;81360;-42
2022/06/27 00:21:49;;;;;;;;;;;22.80;67.60;;;;;;5027500;28;82041;-42
2022/06/27 00:24:15;;;;;;;;;;;22.80;67.60;;;;;;5028020;28;82784;-41
2022/06/27 00:26:41;;;;;;;;;;;22.80;67.60;;;;;;5026088;28;83067;-41
2022/06/27 00:29:06;;;;;;;;;;;22.80;67.70;;;;;;5028267;28;82963;-41
2022/06/27 00:31:32;;;;;;;;;;;22.80;67.60;;;;;;5028146;28;82987;-42
2022/06/27 00:33:58;;;;;;;;;;;22.80;67.60;;;;;;5028077;28;83062;-41
2022/06/27 00:36:23;;;;;;;;;;;22.70;67.50;;;;;;5027532;28;83986;-42
2022/06/27 00:38:49;;;;;;;;;;;22.70;67.60;;;;;;5030429;28;82575;-41
2022/06/27 00:41:14;;;;;;;;;;;22.70;67.60;;;;;;5027769;28;83999;-42
2022/06/27 00:43:42;;;;;;;;;;;22.70;67.70;;;;;;5028314;28;81390;-41
2022/06/27 00:46:07;;;;;;;;;;;22.70;67.70;;;;;;5027945;28;82046;-41
2022/06/27 00:48:33;;;;;;;;;;;22.70;67.60;;;;;;5027650;28;84016;-41
2022/06/27 00:50:59;;;;;;;;;;;22.70;67.60;;;;;;5027032;28;84115;-41
2022/06/27 00:53:24;;;;;;;;;;;22.60;67.60;;;;;;5027445;28;82171;-41
2022/06/27 00:55:50;;;;;;;;;;;22.60;67.60;;;;;;5027538;28;82500;-41
2022/06/27 00:58:16;;;;;;;;;;;22.60;67.60;;;;;;5027542;28;83121;-41
2022/06/27 01:00:41;;;;;;;;;;;22.60;67.70;;;;;;5030562;28;82129;-42
2022/06/27 01:03:07;;;;;;;;;;;22.60;67.60;;;;;;5027005;28;83088;-41
2022/06/27 01:05:32;;;;;;;;;;;22.60;67.60;;;;;;5027532;28;82042;-41
2022/06/27 01:07:58;;;;;;;;;;;22.60;67.50;;;;;;5028030;28;82625;-41
2022/06/27 01:10:23;;;;;;;;;;;22.50;67.60;;;;;;5027383;28;82829;-41
2022/06/27 01:12:49;;;;;;;;;;;22.50;67.60;;;;;;5027587;28;82093;-42
2022/06/27 01:15:15;;;;;;;;;;;22.50;67.60;;;;;;5026920;28;82803;-42
2022/06/27 01:17:40;;;;;;;;;;;22.50;67.60;;;;;;5027269;28;82627;-42
2022/06/27 01:20:07;;;;;;;;;;;22.50;67.60;;;;;;5027336;28;82017;-42
2022/06/27 01:22:33;;;;;;;;;;;22.50;67.60;;;;;;5029774;28;83898;-41
2022/06/27 01:24:58;;;;;;;;;;;22.50;67.70;;;;;;5027164;28;82056;-41
2022/06/27 01:27:24;;;;;;;;;;;22.40;67.60;;;;;;5027264;28;82276;-41
2022/06/27 01:29:49;;;;;;;;;;;22.50;67.60;;;;;;5027100;28;83090;-41
2022/06/27 01:32:15;;;;;;;;;;;22.40;67.60;;;;;;5027703;28;81485;-42
2022/06/27 01:34:40;;;;;;;;;;;22.40;67.60;;;;;;5025759;28;81960;-42
2022/06/27 01:37:06;;;;;;;;;;;22.40;67.60;;;;;;5026941;28;82136;-41
2022/06/27 01:39:32;;;;;;;;;;;22.40;67.60;;;;;;5026324;28;83315;-42
2022/06/27 01:41:59;;;;;;;;;;;22.40;67.50;;;;;;5027152;28;82272;-42
2022/06/27 01:44:26;;;;;;;;;;;22.40;67.60;;;;;;5029350;28;82931;-42
2022/06/27 01:46:53;;;;;;;;;;;22.40;67.60;;;;;;5027065;28;82347;-41
2022/06/27 01:49:19;;;;;;;;;;;22.30;68.20;;;;;;5026478;28;82960;-41
2022/06/27 01:51:45;;;;;;;;;;;22.30;67.70;;;;;;5026970;28;82054;-42
2022/06/27 01:54:12;;;;;;;;;;;22.30;67.70;;;;;;5026900;28;82940;-41
2022/06/27 01:56:38;;;;;;;;;;;22.30;67.70;;;;;;5026613;28;82107;-42
2022/06/27 01:59:04;;;;;;;;;;;22.20;67.60;;;;;;5026791;28;81984;-41
2022/06/27 02:01:30;;;;;;;;;;;22.20;67.60;;;;;;5026362;28;84090;-42
2022/06/27 02:03:56;;;;;;;;;;;22.20;67.70;;;;;;5025153;28;84107;-41
2022/06/27 02:06:22;;;;;;;;;;;22.20;67.70;;;;;;5029224;28;81808;-41
2022/06/27 02:08:50;;;;;;;;;;;22.20;67.60;;;;;;5026591;28;83173;-41
2022/06/27 02:11:16;;;;;;;;;;;22.20;67.70;;;;;;5026470;28;82053;-41
2022/06/27 02:13:42;;;;;;;;;;;22.20;67.70;;;;;;5026678;28;81982;-41
2022/06/27 02:16:15;;;;;;;;;;;22.20;67.70;;;;;;5026206;28;83058;-41
2022/06/27 02:18:41;;;;;;;;;;;22.20;67.70;;;;;;5026226;28;81925;-41
2022/06/27 02:21:07;;;;;;;;;;;22.10;67.70;;;;;;5027066;28;82150;-42
2022/06/27 02:23:32;;;;;;;;;;;22.10;67.70;;;;;;5026006;28;83070;-42
2022/06/27 02:25:58;;;;;;;;;;;22.10;67.60;;;;;;5029191;28;82077;-41
2022/06/27 02:28:25;;;;;;;;;;;22.10;67.70;;;;;;5025520;28;83882;-41
2022/06/27 02:30:51;;;;;;;;;;;22.10;67.70;;;;;;5026111;28;82025;-43
2022/06/27 02:33:17;;;;;;;;;;;22.10;67.70;;;;;;5026053;28;82458;-42
2022/06/27 02:35:43;;;;;;;;;;;22.00;67.70;;;;;;5026098;28;81956;-41
2022/06/27 02:38:09;;;;;;;;;;;22.00;67.80;;;;;;5026172;28;82044;-41
2022/06/27 02:40:36;;;;;;;;;;;22.00;67.70;;;;;;5026108;28;82436;-41
2022/06/27 02:43:02;;;;;;;;;;;22.00;67.70;;;;;;5025813;28;83547;-43
2022/06/27 02:45:29;;;;;;;;;;;22.00;67.80;;;;;;5026153;28;81355;-42
2022/06/27 02:47:56;;;;;;;;;;;22.00;67.80;;;;;;5028058;28;83237;-41
2022/06/27 02:50:24;;;;;;;;;;;21.90;67.80;;;;;;5025829;28;82078;-41
2022/06/27 02:52:52;;;;;;;;;;;21.90;67.70;;;;;;5025215;28;82993;-41
2022/06/27 02:55:19;;;;;;;;;;;21.90;67.80;;;;;;5025362;28;84614;-42
2022/06/27 02:57:47;;;;;;;;;;;21.90;67.80;;;;;;5025581;28;82037;-41
2022/06/27 03:00:14;;;;;;;;;;;21.90;67.80;;;;;;5025659;28;82566;-42
2022/06/27 03:02:41;;;;;;;;;;;21.90;67.90;;;;;;5025554;28;84307;-42
2022/06/27 03:05:06;;;;;;;;;;;21.80;67.90;;;;;;5025330;28;82013;-42
2022/06/27 03:07:38;;;;;;;;;;;21.80;67.90;;;;;;5024682;28;81865;-41
2022/06/27 03:10:04;;;;;;;;;;;21.80;67.90;;;;;;5028742;28;82213;-41
2022/06/27 03:12:29;;;;;;;;;;;21.80;67.80;;;;;;5025686;28;81867;-42
2022/06/27 03:14:55;;;;;;;;;;;21.80;67.90;;;;;;5025156;28;84319;-41
2022/06/27 03:17:20;;;;;;;;;;;21.80;67.80;;;;;;5024818;28;83124;-41
2022/06/27 03:19:46;;;;;;;;;;;21.80;67.80;;;;;;5025659;28;83535;-42
2022/06/27 03:22:11;;;;;;;;;;;21.80;67.70;;;;;;5025249;28;84326;-41
2022/06/27 03:24:37;;;;;;;;;;;21.80;67.90;;;;;;5025734;28;82027;-41
2022/06/27 03:27:03;;;;;;;;;;;21.70;67.80;;;;;;5025638;28;82694;-41
2022/06/27 03:29:28;;;;;;;;;;;21.70;67.80;;;;;;5025198;28;84147;-41
2022/06/27 03:31:54;;;;;;;;;;;21.70;67.80;;;;;;5028196;28;82090;-41
2022/06/27 03:34:19;;;;;;;;;;;21.70;67.80;;;;;;5025944;28;82193;-41
2022/06/27 03:36:45;;;;;;;;;;;21.70;67.90;;;;;;5025466;28;82213;-41
2022/06/27 03:39:13;;;;;;;;;;;21.70;67.80;;;;;;5025368;28;81947;-41
2022/06/27 03:41:39;;;;;;;;;;;21.60;67.70;;;;;;5024277;28;85454;-41
2022/06/27 03:44:08;;;;;;;;;;;21.60;67.80;;;;;;5025250;28;82082;-41
2022/06/27 03:46:34;;;;;;;;;;;21.60;67.90;;;;;;5025104;28;81915;-42
2022/06/27 03:51:44;;;;;;;;;;;21.60;68.00;;;;;;5025406;28;81975;-41
2022/06/27 03:54:09;;;;;;;;;;;21.60;67.90;;;;;;5027415;28;83709;-41
2022/06/27 03:56:35;;;;;;;;;;;21.50;68.10;;;;;;5025020;28;81979;-41
2022/06/27 03:59:00;;;;;;;;;;;21.50;68.00;;;;;;5028740;28;81911;-41
2022/06/27 04:01:26;;;;;;;;;;;21.50;68.00;;;;;;5028488;28;82545;-42
2022/06/27 04:03:52;;;;;;;;;;;21.50;68.00;;;;;;5027623;28;82595;-41
2022/06/27 04:06:17;;;;;;;;;;;21.50;68.10;;;;;;5028135;28;82897;-41
2022/06/27 04:08:43;;;;;;;;;;;21.50;67.90;;;;;;5028360;28;83157;-41
2022/06/27 04:11:09;;;;;;;;;;;21.50;68.10;;;;;;5028410;28;82069;-43
2022/06/27 04:13:34;;;;;;;;;;;21.40;68.10;;;;;;5030819;28;82504;-41
2022/06/27 04:16:00;;;;;;;;;;;21.50;68.20;;;;;;5028351;28;82055;-42
2022/06/27 04:18:25;;;;;;;;;;;21.40;68.10;;;;;;5028267;28;82503;-41
2022/06/27 04:20:51;;;;;;;;;;;21.40;68.10;;;;;;5028323;28;82985;-41
2022/06/27 04:23:16;;;;;;;;;;;21.40;68.10;;;;;;5028657;28;81196;-41
2022/06/27 04:25:42;;;;;;;;;;;21.50;68.00;;;;;;5028165;28;81907;-41
2022/06/27 04:28:08;;;;;;;;;;;21.40;68.00;;;;;;5027924;28;82261;-42
2022/06/27 04:30:33;;;;;;;;;;;21.40;68.10;;;;;;5027483;28;82695;-41
2022/06/27 04:32:59;;;;;;;;;;;21.40;68.10;;;;;;5028239;28;83394;-41
2022/06/27 04:35:25;;;;;;;;;;;21.40;68.10;;;;;;5030438;28;83450;-42
2022/06/27 04:37:50;;;;;;;;;;;21.40;68.10;;;;;;5027825;28;83842;-42
2022/06/27 04:40:19;;;;;;;;;;;21.40;68.10;;;;;;5027630;28;83038;-41
2022/06/27 04:42:45;;;;;;;;;;;21.40;68.20;;;;;;5027960;28;82070;-41
2022/06/27 04:45:14;;;;;;;;;;;21.40;68.10;;;;;;5027745;28;82157;-41
2022/06/27 04:47:40;;;;;;;;;;;21.40;68.10;;;;;;5028213;28;82151;-41
2022/06/27 04:50:08;;;;;;;;;;;21.40;68.10;;;;;;5027474;28;82188;-42
2022/06/27 04:52:33;;;;;;;;;;;21.40;68.10;;;;;;5027631;28;84442;-41
2022/06/27 04:55:00;;;;;;;;;;;21.40;68.10;;;;;;5026907;28;83821;-41
2022/06/27 04:57:26;;;;;;;;;;;21.40;68.10;;;;;;5029921;28;82065;-41
2022/06/27 04:59:52;;;;;;;;;;;21.40;68.10;;;;;;5027257;28;84522;-42
2022/06/27 05:02:18;;;;;;;;;;;21.30;68.10;;;;;;5027548;28;82316;-42
2022/06/27 05:04:44;;;;;;;;;;;21.30;68.20;;;;;;5027151;28;84047;-43
2022/06/27 05:07:09;;;;;;;;;;;21.30;68.20;;;;;;5027085;28;84283;-41
2022/06/27 05:09:35;;;;;;;;;;;21.30;68.10;;;;;;5027283;28;82386;-42
2022/06/27 05:12:00;;;;;;;;;;;21.30;68.10;;;;;;5028052;28;82297;-41
2022/06/27 05:14:26;;;;;;;;;;;21.40;68.30;;;;;;5026951;28;82429;-41
2022/06/27 05:16:51;;;;;;;;;;;21.30;68.30;;;;;;5027252;28;82676;-42
2022/06/27 05:19:17;;;;;;;;;;;21.30;68.40;;;;;;5029499;28;83025;-41
2022/06/27 05:21:43;;;;;;;;;;;21.30;68.50;;;;;;5027384;28;82100;-42
2022/06/27 05:24:09;;;;;;;;;;;21.30;68.40;;;;;;5027090;28;83697;-41
2022/06/27 05:26:35;;;;;;;;;;;21.30;68.30;;;;;;5027209;28;82106;-42
2022/06/27 05:29:01;;;;;;;;;;;21.40;68.40;;;;;;5026992;28;81835;-44
2022/06/27 05:31:27;;;;;;;;;;;21.30;68.40;;;;;;5026757;28;84211;-41
2022/06/27 05:33:53;;;;;;;;;;;21.30;68.40;;;;;;5027066;28;82278;-42
2022/06/27 05:36:20;;;;;;;;;;;21.40;68.40;;;;;;5027442;28;81218;-42
2022/06/27 05:38:46;;;;;;;;;;;21.40;68.40;;;;;;5026941;28;81979;-41
2022/06/27 05:41:12;;;;;;;;;;;21.40;68.50;;;;;;5029248;28;83722;-41
2022/06/27 05:43:38;;;;;;;;;;;21.40;68.50;;;;;;5026165;28;82965;-41
2022/06/27 05:46:04;;;;;;;;;;;21.40;68.40;;;;;;5026772;28;83261;-42
2022/06/27 05:48:29;;;;;;;;;;;21.40;68.60;;;;;;5026562;28;82121;-40
2022/06/27 05:50:56;;;;;;;;;;;21.40;68.50;;;;;;5026982;28;81930;-41
2022/06/27 05:53:22;;;;;;;;;;;21.30;68.70;;;;;;5026351;28;84554;-41
2022/06/27 05:55:47;;;;;;;;;;;21.30;68.80;;;;;;5026682;28;81972;-41
2022/06/27 05:58:13;;;;;;;;;;;21.30;68.70;;;;;;5026195;28;83797;-41
2022/06/27 06:00:39;;;;;;;;;;;21.40;68.70;;;;;;5027200;28;82194;-41
2022/06/27 06:03:04;;;;;;;;;;;21.40;68.70;;;;;;5029246;28;81857;-42
2022/06/27 06:05:31;;;;;;;;;;;21.40;68.70;;;;;;5026398;28;83046;-42
2022/06/27 06:08:02;;;;;;;;;;;21.40;68.70;;;;;;5025903;28;83044;-41
2022/06/27 06:10:29;;;;;;;;;;;21.40;68.70;;;;;;5026427;28;83348;-41
2022/06/27 06:12:55;;;;;;;;;;;21.30;68.70;;;;;;5026341;28;82304;-41
2022/06/27 06:15:21;;;;;;;;;;;21.30;68.80;;;;;;5026453;28;82004;-41
2022/06/27 06:17:47;;;;;;;;;;;21.40;68.80;;;;;;5026621;28;82441;-41
2022/06/27 06:20:13;;;;;;;;;;;21.40;68.80;;;;;;5025239;28;84728;-41
2022/06/27 06:22:40;;;;;;;;;;;21.40;68.60;;;;;;5029292;28;82100;-41
2022/06/27 06:25:07;;;;;;;;;;;21.40;68.70;;;;;;5026491;28;82979;-41
2022/06/27 06:27:33;;;;;;;;;;;21.40;68.60;;;;;;5025851;28;81972;-41
2022/06/27 06:30:02;;;;;;;;;;;21.40;68.70;;;;;;5026310;28;82308;-41
2022/06/27 06:32:28;;;;;;;;;;;21.40;68.70;;;;;;5025264;28;84053;-41
2022/06/27 06:34:54;;;;;;;;;;;21.40;68.60;;;;;;5026236;28;82107;-41
2022/06/27 06:37:19;;;;;;;;;;;21.40;68.50;;;;;;5026262;28;82624;-41
2022/06/27 06:39:45;;;;;;;;;;;21.40;68.60;;;;;;5026082;28;82015;-42
2022/06/27 06:42:11;;;;;;;;;;;21.50;68.50;;;;;;5025898;28;82203;-41
2022/06/27 06:44:36;;;;;;;;;;;21.50;68.40;;;;;;5028371;28;84233;-41
2022/06/27 06:47:02;;;;;;;;;;;21.50;68.50;;;;;;5026094;28;82099;-41
2022/06/27 06:49:29;;;;;;;;;;;21.50;68.60;;;;;;5026235;28;83915;-42
2022/06/27 06:51:54;;;;;;;;;;;21.50;68.50;;;;;;5025580;28;84458;-41
2022/06/27 06:54:20;;;;;;;;;;;21.50;68.50;;;;;;5025918;28;82098;-41
2022/06/27 06:56:49;;;;;;;;;;;21.50;68.60;;;;;;5024635;28;84036;-41
2022/06/27 06:59:15;;;;;;;;;;;21.50;68.70;;;;;;5025379;28;84100;-41
2022/06/27 07:01:41;;;;;;;;;;;21.50;68.70;;;;;;5025939;28;82123;-41
2022/06/27 07:04:08;;;;;;;;;;;21.50;68.50;;;;;;5025002;28;83787;-42
2022/06/27 07:06:33;;;;;;;;;;;21.50;68.50;;;;;;5026870;28;85268;-41
2022/06/27 07:09:00;;;;;;;;;;;21.60;68.40;;;;;;5025667;28;83964;-41
2022/06/27 07:11:28;;;;;;;;;;;21.60;68.40;;;;;;5025292;28;82261;-42
2022/06/27 07:13:55;;;;;;;;;;;21.60;68.40;;;;;;5025824;28;81356;-42
2022/06/27 07:16:21;;;;;;;;;;;21.60;69.00;;;;;;5025433;28;83495;-41
2022/06/27 07:18:47;;;;;;;;;;;21.60;68.40;;;;;;5025126;28;83854;-41
2022/06/27 07:21:17;;;;;;;;;;;21.60;68.80;;;;;;5024959;28;83049;-41
2022/06/27 07:23:43;;;;;;;;;;;21.60;68.40;;;;;;5025553;28;84723;-42
2022/06/27 07:26:09;;;;;;;;;;;21.60;68.40;;;;;;5025265;28;83136;-41
2022/06/27 07:28:35;;;;;;;;;;;21.60;68.40;;;;;;5028075;28;82120;-41
2022/06/27 07:31:01;;;;;;;;;;;21.60;68.60;;;;;;5026100;28;83297;-41
2022/06/27 07:33:28;;;;;;;;;;;21.60;68.70;;;;;;5028634;28;82117;-41
2022/06/27 07:35:53;;;;;;;;;;;21.60;68.60;;;;;;5029034;28;82349;-42
2022/06/27 07:38:21;;;;;;;;;;;21.60;68.50;;;;;;5029301;28;82159;-41
2022/06/27 07:40:46;;;;;;;;;;;21.60;68.40;;;;;;5028671;28;82442;-41
2022/06/27 07:43:14;;;;;;;;;;;21.60;68.70;;;;;;5029001;28;82311;-41
2022/06/27 07:45:40;;;;;;;;;;;21.60;68.50;;;;;;5027840;28;85804;-42
2022/06/27 07:48:06;;;;;;;;;;;21.60;68.40;;;;;;5028644;28;82381;-41
2022/06/27 07:50:40;;;;;;;;;;;21.70;68.50;;;;;;5031048;28;82991;-41
2022/06/27 07:53:12;;;;;;;;;;;21.60;68.50;;;;;;5029098;28;82564;-41
2022/06/27 07:55:39;;;;;;;;;;;21.60;68.30;;;;;;5028755;28;82464;-41
2022/06/27 07:58:06;;;;;;;;;;;21.60;68.20;;;;;;5028079;28;84047;-41
2022/06/27 08:00:31;;;;;;;;;;;21.70;68.30;;;;;;5028599;28;82103;-41
2022/06/27 08:02:57;;;;;;;;;;;21.70;68.30;;;;;;5029214;28;82556;-41
2022/06/27 08:05:22;;;;;;;;;;;21.70;68.40;;;;;;5028064;28;82978;-41
2022/06/27 08:07:49;;;;;;;;;;;21.70;68.40;;;;;;5028463;28;82139;-41
2022/06/27 08:10:15;;;;;;;;;;;21.70;68.30;;;;;;5027653;28;83885;-41
2022/06/27 08:12:40;;;;;;;;;;;21.70;68.30;;;;;;5030905;28;83001;-42
2022/06/27 08:15:06;;;;;;;;;;;21.70;68.40;;;;;;5028528;28;82517;-41
2022/06/27 08:17:32;;;;;;;;;;;21.70;68.50;;;;;;5028097;28;83387;-42
2022/06/27 08:19:58;;;;;;;;;;;21.70;68.30;;;;;;5028278;28;81988;-41
2022/06/27 08:22:24;;;;;;;;;;;21.70;68.30;;;;;;5028280;28;82145;-42
2022/06/27 08:24:50;;;;;;;;;;;21.70;68.40;;;;;;5027887;28;84328;-41
2022/06/27 08:27:15;;;;;;;;;;;21.70;68.30;;;;;;5028688;28;81291;-41
2022/06/27 08:29:42;;;;;;;;;;;21.80;68.30;;;;;;5028111;28;81977;-41
2022/06/27 08:32:07;;;;;;;;;;;21.80;68.30;;;;;;5030875;28;82273;-41
2022/06/27 08:34:33;;;;;;;;;;;21.80;68.30;;;;;;5027649;28;82820;-41
2022/06/27 08:36:59;;;;;;;;;;;21.80;68.30;;;;;;5027648;28;82959;-41
2022/06/27 08:39:25;;;;;;;;;;;21.80;68.30;;;;;;5027981;28;82085;-41
2022/06/27 08:41:51;;;;;;;;;;;21.80;68.40;;;;;;5027993;28;82427;-41
2022/06/27 08:44:16;;;;;;;;;;;21.80;68.30;;;;;;5027367;28;82293;-42
2022/06/27 08:46:45;;;;;;;;;;;21.70;68.30;;;;;;5027735;28;82135;-41
2022/06/27 08:49:12;;;;;;;;;;;21.70;68.30;;;;;;5027711;28;83919;-41
2022/06/27 08:51:38;;;;;;;;;;;21.80;68.30;;;;;;5027833;28;83384;-41
2022/06/27 08:54:04;;;;;;;;;;;21.80;68.30;;;;;;5030623;28;82069;-41
2022/06/27 08:56:30;;;;;;;;;;;21.80;68.30;;;;;;5027293;28;84518;-41
2022/06/27 08:58:58;;;;;;;;;;;21.80;68.20;;;;;;5026842;28;83121;-41
2022/06/27 09:01:27;;;;;;;;;;;21.80;68.30;;;;;;5027701;28;83206;-42
2022/06/27 09:04:03;;;;;;;;;;;21.80;68.30;;;;;;5026795;28;81952;-42
2022/06/27 09:06:33;;;;;;;;;;;21.80;68.20;;;;;;5027418;28;82130;-41
2022/06/27 09:09:05;;;;;;;;;;;21.90;68.30;;;;;;5027634;28;81967;-41
2022/06/27 09:11:32;;;;;;;;;;;21.80;68.20;;;;;;5027153;28;84425;-42
2022/06/27 09:13:58;;;;;;;;;;;21.90;68.20;;;;;;5027517;28;82132;-42
2022/06/27 09:16:24;;;;;;;;;;;21.90;68.20;;;;;;5030228;28;82835;-41
2022/06/27 09:18:50;;;;;;;;;;;21.90;68.10;;;;;;5027345;28;82128;-41
2022/06/27 09:21:16;;;;;;;;;;;21.90;68.10;;;;;;5027332;28;83910;-41
2022/06/27 09:23:55;;;;;;;;;;;21.90;68.20;;;;;;5026197;28;85386;-41
2022/06/27 09:26:42;;;;;;;;;;;21.90;68.20;;;;;;5027417;28;82074;-41
2022/06/27 09:29:09;;;;;;;;;;;21.90;68.20;;;;;;5027603;28;82083;-41
2022/06/27 09:31:37;;;;;;;;;;;22.00;68.10;;;;;;5026778;28;82820;-41
2022/06/27 09:34:16;;;;;;;;;;;22.00;68.20;;;;;;5027264;28;82013;-41
2022/06/27 09:36:50;;;;;;;;;;;22.00;68.20;;;;;;5026877;28;83866;-41
2022/06/27 09:39:17;;;;;;;;;;;22.00;68.20;;;;;;5029379;28;84581;-41
2022/06/27 09:41:45;;;;;;;;;;;22.00;68.20;;;;;;5027351;28;82943;-41
2022/06/27 09:44:11;;;;;;;;;;;22.00;68.20;;;;;;5026581;28;84537;-41
2022/06/27 09:46:42;;;;;;;;;;;22.00;68.20;;;;;;5027046;28;82085;-41
2022/06/27 09:49:12;;;;;;;;;;;22.10;68.20;;;;;;5026415;28;83642;-41
2022/06/27 09:51:38;;;;;;;;;;;22.10;68.20;;;;;;5026512;28;85643;-41
2022/06/27 09:54:09;;;;;;;;;;;22.10;68.10;;;;;;5026317;28;82056;-41
2022/06/27 09:56:39;;;;;;;;;;;22.10;68.10;;;;;;5025877;28;83771;-42
2022/06/27 09:59:06;;;;;;;;;;;22.10;68.10;;;;;;5026162;28;84895;-41
2022/06/27 10:01:32;;;;;;;;;;;22.10;68.20;;;;;;5029580;28;82132;-41
2022/06/27 10:04:00;;;;;;;;;;;22.20;68.10;;;;;;5025979;28;84688;-41
2022/06/27 10:06:25;;;;;;;;;;;22.20;68.10;;;;;;5027045;28;81673;-41
2022/06/27 10:08:51;;;;;;;;;;;22.20;68.20;;;;;;5026597;28;82005;-43
2022/06/27 10:11:17;;;;;;;;;;;22.20;68.00;;;;;;5024888;28;86574;-41
2022/06/27 10:13:43;;;;;;;;;;;22.20;68.00;;;;;;5025669;28;83144;-40
2022/06/27 10:16:12;;;;;;;;;;;22.20;67.80;;;;;;5026401;28;83778;-41
2022/06/27 10:18:56;;;;;;;;;;;22.30;67.90;;;;;;5026323;28;83040;-41
2022/06/27 10:21:26;;;;;;;;;;;22.30;67.70;;;;;;5026564;28;82000;-41
2022/06/27 10:24:11;;;;;;;;;;;22.30;67.70;;;;;;5028535;28;83821;-41
2022/06/27 10:26:40;;;;;;;;;;;22.30;67.70;;;;;;5026395;28;82149;-41
2022/06/27 10:29:25;;;;;;;;;;;22.30;68.30;;;;;;5026054;28;83812;-41
2022/06/27 10:31:50;;;;;;;;;;;22.30;67.70;;;;;;5026781;28;82334;-41
2022/06/27 10:34:16;;;;;;;;;;;22.40;67.70;;;;;;5026117;28;82109;-41
2022/06/27 10:36:41;;;;;;;;;;;22.40;67.60;;;;;;5026392;28;81861;-41
2022/06/27 10:39:18;;;;;;;;;;;22.40;67.60;;;;;;5025383;28;84032;-42
2022/06/27 10:41:44;;;;;;;;;;;22.40;67.50;;;;;;5026083;28;82021;-41
2022/06/27 10:44:29;;;;;;;;;;;22.50;67.60;;;;;;5028441;28;83876;-41
2022/06/27 10:46:55;;;;;;;;;;;22.40;67.50;;;;;;5025849;28;82084;-41
2022/06/27 10:49:21;;;;;;;;;;;22.50;67.50;;;;;;5025870;28;83803;-41
2022/06/27 10:51:47;;;;;;;;;;;22.50;67.40;;;;;;5025664;28;84478;-42
2022/06/27 10:54:13;;;;;;;;;;;22.50;67.30;;;;;;5025877;28;82044;-41
2022/06/27 10:56:41;;;;;;;;;;;22.60;67.30;;;;;;5026390;28;82498;-41
2022/06/27 10:59:13;;;;;;;;;;;22.60;67.20;;;;;;5025177;28;83088;-41
2022/06/27 11:01:40;;;;;;;;;;;22.60;67.20;;;;;;5025898;28;81823;-42
2022/06/27 11:04:06;;;;;;;;;;;22.60;67.20;;;;;;5024854;28;82976;-41
2022/06/27 11:06:31;;;;;;;;;;;22.60;67.40;;;;;;5028094;28;82657;-41
2022/06/27 11:08:57;;;;;;;;;;;22.60;67.50;;;;;;5025608;28;82401;-41
2022/06/27 11:11:27;;;;;;;;;;;22.60;67.40;;;;;;5025774;28;82956;-41
2022/06/27 11:13:53;;;;;;;;;;;22.60;67.40;;;;;;5025422;28;82061;-41
2022/06/27 11:16:20;;;;;;;;;;;22.60;67.50;;;;;;5025715;28;82392;-41
2022/06/27 11:18:45;;;;;;;;;;;22.60;67.50;;;;;;5024069;28;85237;-41
2022/06/27 11:21:12;;;;;;;;;;;22.60;67.50;;;;;;5026209;28;81062;-41
2022/06/27 11:24:07;;;;;;;;;;;22.60;67.40;;;;;;5025563;28;82011;-41
2022/06/27 11:26:33;;;;;;;;;;;22.70;67.40;;;;;;5015626;28;84568;-41
2022/06/27 11:31:58;;;;;;;;;;;22.70;67.30;;;;;;5023894;28;81968;-41
2022/06/27 11:34:25;;;;;;;;;;;22.80;67.40;;;;;;5025706;28;83238;-41
2022/06/27 11:36:51;;;;;;;;;;;22.80;67.30;;;;;;5023594;28;83674;-41
2022/06/27 11:39:24;;;;;;;;;;;22.80;67.30;;;;;;5025252;28;83515;-41
2022/06/27 11:41:54;;;;;;;;;;;22.80;67.20;;;;;;5025391;28;81946;-42
2022/06/27 11:44:19;;;;;;;;;;;22.90;67.10;;;;;;5025140;28;85188;-41
2022/06/27 11:46:49;;;;;;;;;;;22.90;67.10;;;;;;5025937;28;82313;-41
2022/06/27 11:49:16;;;;;;;;;;;22.90;67.10;;;;;;5024992;28;81942;-41
2022/06/27 11:51:43;;;;;;;;;;;22.90;67.20;;;;;;5027646;28;81975;-41
2022/06/27 11:54:10;;;;;;;;;;;22.90;67.20;;;;;;5024639;28;83069;-41
2022/06/27 11:56:37;;;;;;;;;;;22.90;67.10;;;;;;5025159;28;83190;-41
2022/06/27 11:59:04;;;;;;;;;;;22.90;67.10;;;;;;5024786;28;83107;-41
2022/06/27 12:01:29;;;;;;;;;;;23.00;67.00;;;;;;5025113;28;82007;-41
2022/06/27 12:04:04;;;;;;;;;;;23.00;66.90;;;;;;5024787;28;82718;-42
2022/06/27 12:06:30;;;;;;;;;;;23.00;67.00;;;;;;5024882;28;83061;-42
2022/06/27 12:09:01;;;;;;;;;;;23.00;66.90;;;;;;5025049;28;82120;-41
2022/06/27 12:11:29;;;;;;;;;;;23.00;66.90;;;;;;5025561;28;83771;-41
2022/06/27 12:13:59;;;;;;;;;;;23.00;66.90;;;;;;5027552;28;83325;-41
2022/06/27 12:16:24;;;;;;;;;;;23.10;66.90;;;;;;5024863;28;82367;-42
2022/06/27 12:18:51;;;;;;;;;;;23.10;66.80;;;;;;5025952;28;83924;-43
2022/06/27 12:21:21;;;;;;;;;;;23.10;66.70;;;;;;5028010;28;82083;-42
2022/06/27 12:23:48;;;;;;;;;;;23.10;66.90;;;;;;5028219;28;83805;-41
2022/06/27 12:26:13;;;;;;;;;;;23.10;66.80;;;;;;5026939;28;84531;-40
2022/06/27 12:28:40;;;;;;;;;;;22.90;62.00;;;;;;5028160;28;82079;-40
2022/06/27 12:31:05;;;;;;;;;;;22.80;61.50;;;;;;5028252;28;82554;-43
2022/06/27 12:33:31;;;;;;;;;;;22.70;60.70;;;;;;5028085;28;83143;-41
2022/06/27 12:35:56;;;;;;;;;;;22.80;60.90;;;;;;5031184;28;81263;-39
2022/06/27 12:38:22;;;;;;;;;;;22.90;60.20;;;;;;5028138;28;83015;-45
2022/06/27 12:40:48;;;;;;;;;;;23.00;61.50;;;;;;5027890;28;82162;-42
2022/06/27 12:43:13;;;;;;;;;;;23.10;62.80;;;;;;5027041;28;84541;-43
2022/06/27 12:45:40;;;;;;;;;;;23.20;62.60;;;;;;5027719;28;82990;-49
2022/06/27 12:48:06;;;;;;;;;;;23.30;62.70;;;;;;5027609;28;82098;-42
2022/06/27 12:50:32;;;;;;;;;;;23.40;62.60;;;;;;5026356;28;85456;-45
2022/06/27 12:52:57;;;;;;;;;;;23.40;62.70;;;;;;5027784;28;83080;-43
2022/06/27 12:55:23;;;;;;;;;;;23.50;62.40;;;;;;5030680;28;82057;-45
2022/06/27 12:57:48;;;;;;;;;;;23.60;62.60;;;;;;5027371;28;82214;-50
2022/06/27 13:00:14;;;;;;;;;;;23.60;63.80;;;;;;5027920;28;81323;-42
2022/06/27 13:02:40;;;;;;;;;;;23.70;63.60;;;;;;5027318;28;84065;-51
2022/06/27 13:05:06;;;;;;;;;;;23.70;62.30;;;;;;5027265;28;83049;-41
2022/06/27 13:07:31;;;;;;;;;;;23.70;61.70;;;;;;5026901;28;83052;-44
2022/06/27 13:09:57;;;;;;;;;;;23.90;62.20;;;;;;5027646;28;83553;-44
2022/06/27 13:12:23;;;;;;;;;;;23.90;61.00;;;;;;5027302;28;84508;-44
2022/06/27 13:14:48;;;;;;;;;;;23.80;60.50;;;;;;5027370;28;82127;-43
2022/06/27 13:17:14;;;;;;;;;;;23.80;61.10;;;;;;5029929;28;82484;-40
2022/06/27 13:19:39;;;;;;;;;;;23.90;61.10;;;;;;5027118;28;82018;-46
2022/06/27 13:22:05;;;;;;;;;;;23.90;62.20;;;;;;5027223;28;83971;-41
2022/06/27 13:24:30;;;;;;;;;;;24.00;63.00;;;;;;5027777;28;82399;-42
2022/06/27 13:26:56;;;;;;;;;;;24.00;62.20;;;;;;5027396;28;82114;-41
2022/06/27 13:29:22;;;;;;;;;;;24.00;62.50;;;;;;5027402;28;81986;-41
2022/06/27 13:31:51;;;;;;;;;;;24.10;62.70;;;;;;5025840;28;84599;-48
2022/06/27 13:34:16;;;;;;;;;;;24.10;62.80;;;;;;5026783;28;82097;-40
2022/06/27 13:36:45;;;;;;;;;;;24.20;62.40;;;;;;5027107;28;82082;-47
2022/06/27 13:39:11;;;;;;;;;;;24.10;62.40;;;;;;5029613;28;83362;-42
2022/06/27 13:41:36;;;;;;;;;;;24.20;62.00;;;;;;5026922;28;83732;-50
2022/06/27 13:44:02;;;;;;;;;;;24.20;62.10;;;;;;5026892;28;82563;-45
2022/06/27 13:46:27;;;;;;;;;;;24.20;61.60;;;;;;5027418;28;82505;-45
2022/06/27 13:48:53;;;;;;;;;;;24.20;61.00;;;;;;5027367;28;82018;-43
2022/06/27 13:51:18;;;;;;;;;;;24.30;59.60;;;;;;5026630;28;82298;-43
2022/06/27 13:53:44;;;;;;;;;;;24.30;60.40;;;;;;5026946;28;82097;-50
2022/06/27 13:56:09;;;;;;;;;;;24.30;61.40;;;;;;5025858;28;82832;-45
2022/06/27 13:58:35;;;;;;;;;;;24.30;60.60;;;;;;5025231;28;83047;-44
2022/06/27 14:01:01;;;;;;;;;;;24.30;60.00;;;;;;5028050;28;82080;-43
2022/06/27 14:03:27;;;;;;;;;;;24.40;59.70;;;;;;5024606;28;83102;-42
2022/06/27 14:05:52;;;;;;;;;;;24.40;60.30;;;;;;5026792;28;81980;-41
2022/06/27 14:08:18;;;;;;;;;;;24.40;60.40;;;;;;5026383;28;83850;-45
2022/06/27 14:10:56;;;;;;;;;;;24.40;59.80;;;;;;5026406;28;83081;-42
2022/06/27 14:13:24;;;;;;;;;;;24.50;60.90;;;;;;5026929;28;81277;-45
2022/06/27 14:15:50;;;;;;;;;;;24.50;59.50;;;;;;5026402;28;82312;-51
2022/06/27 14:18:16;;;;;;;;;;;24.60;59.50;;;;;;5026497;28;82819;-45
2022/06/27 14:20:42;;;;;;;;;;;24.60;59.50;;;;;;5024201;28;83546;-52